sensor_id;sensor_type;location;lat;lon;timestamp;pressure;altitude;pressure_sealevel;temperature;humidity
36748;BME280;22716;51.556;5.080;2023-04-07T00:01:11;100801.69;;;8.58;100.00
36748;BME280;22716;51.556;5.080;2023-04-07T00:03:40;100786.03;;;8.52;100.00
36748;BME280;22716;51.556;5.080;2023-04-07T00:06:09;100797.34;;;8.59;100.00
36748;BME280;22716;51.556;5.080;2023-04-07T00:08:40;100795.59;;;8.58;100.00
36748;BME280;22716;51.556;5.080;2023-04-07T00:11:09;100799.09;;;8.55;100.00
36748;BME280;22716;51.556;5.080;2023-04-07T00:13:38;100801.72;;;8.57;100.00
36748;BME280;22716;51.556;5.080;2023-04-07T00:16:07;100801.69;;;8.58;100.00
36748;BME280;22716;51.556;5.080;2023-04-07T00:18:36;100792.16;;;8.53;100.00
36748;BME280;22716;51.556;5.080;2023-04-07T00:21:05;100794.75;;;8.56;100.00
36748;BME280;22716;51.556;5.080;2023-04-07T00:23:33;100760.00;;;8.29;100.00
36748;BME280;22716;51.556;5.080;2023-04-07T00:26:05;100800.84;;;8.56;100.00
36748;BME280;22716;51.556;5.080;2023-04-07T00:28:33;100797.38;;;8.54;100.00
36748;BME280;22716;51.556;5.080;2023-04-07T00:31:02;100811.28;;;8.53;100.00
36748;BME280;22716;51.556;5.080;2023-04-07T00:33:31;100793.03;;;8.45;100.00
36748;BME280;22716;51.556;5.080;2023-04-07T00:35:59;100794.78;;;8.45;100.00
36748;BME280;22716;51.556;5.080;2023-04-07T00:38:28;100805.22;;;8.50;100.00
36748;BME280;22716;51.556;5.080;2023-04-07T00:40:57;100814.78;;;8.49;100.00
36748;BME280;22716;51.556;5.080;2023-04-07T00:43:29;100805.22;;;8.47;100.00
36748;BME280;22716;51.556;5.080;2023-04-07T00:45:58;100800.84;;;8.45;100.00
36748;BME280;22716;51.556;5.080;2023-04-07T00:48:26;100783.50;;;8.32;100.00
36748;BME280;22716;51.556;5.080;2023-04-07T00:50:55;100806.13;;;8.39;100.00
36748;BME280;22716;51.556;5.080;2023-04-07T00:53:24;100802.63;;;8.40;100.00
36748;BME280;22716;51.556;5.080;2023-04-07T00:55:53;100804.38;;;8.35;100.00
36748;BME280;22716;51.556;5.080;2023-04-07T00:58:22;100796.56;;;8.32;100.00
36748;BME280;22716;51.556;5.080;2023-04-07T01:00:58;100793.94;;;8.28;100.00
36748;BME280;22716;51.556;5.080;2023-04-07T01:03:34;100801.78;;;8.29;100.00
36748;BME280;22716;51.556;5.080;2023-04-07T01:06:05;100795.69;;;8.27;100.00
36748;BME280;22716;51.556;5.080;2023-04-07T01:08:43;100800.91;;;8.29;100.00
36748;BME280;22716;51.556;5.080;2023-04-07T01:11:22;100789.56;;;8.21;100.00
36748;BME280;22716;51.556;5.080;2023-04-07T01:13:52;100800.00;;;8.27;100.00
36748;BME280;22716;51.556;5.080;2023-04-07T01:16:29;100793.91;;;8.25;100.00
36748;BME280;22716;51.556;5.080;2023-04-07T01:19:03;100799.13;;;8.23;100.00
36748;BME280;22716;51.556;5.080;2023-04-07T01:21:34;100801.75;;;8.23;100.00
36748;BME280;22716;51.556;5.080;2023-04-07T01:24:26;100796.53;;;8.17;100.00
36748;BME280;22716;51.556;5.080;2023-04-07T01:27:16;100804.38;;;8.19;100.00
36748;BME280;22716;51.556;5.080;2023-04-07T01:29:51;100801.78;;;8.22;100.00
36748;BME280;22716;51.556;5.080;2023-04-07T01:32:22;100806.94;;;8.25;100.00
36748;BME280;22716;51.556;5.080;2023-04-07T01:34:53;100809.59;;;8.23;100.00
36748;BME280;22716;51.556;5.080;2023-04-07T01:37:24;100812.19;;;8.20;100.00
36748;BME280;22716;51.556;5.080;2023-04-07T01:39:54;100810.47;;;8.18;100.00
36748;BME280;22716;51.556;5.080;2023-04-07T01:42:25;100808.72;;;8.18;100.00
36748;BME280;22716;51.556;5.080;2023-04-07T01:44:58;100813.94;;;8.17;100.00
36748;BME280;22716;51.556;5.080;2023-04-07T01:47:29;100814.81;;;8.16;100.00
36748;BME280;22716;51.556;5.080;2023-04-07T01:49:59;100819.16;;;8.15;100.00
36748;BME280;22716;51.556;5.080;2023-04-07T01:52:30;100817.44;;;8.13;100.00
36748;BME280;22716;51.556;5.080;2023-04-07T01:55:00;100810.47;;;8.12;100.00
36748;BME280;22716;51.556;5.080;2023-04-07T01:57:28;100806.97;;;8.08;100.00
36748;BME280;22716;51.556;5.080;2023-04-07T02:00:00;100823.50;;;8.16;100.00
36748;BME280;22716;51.556;5.080;2023-04-07T02:02:29;100813.94;;;8.08;100.00
36748;BME280;22716;51.556;5.080;2023-04-07T02:05:02;100820.03;;;8.11;100.00
36748;BME280;22716;51.556;5.080;2023-04-07T02:07:39;100821.78;;;8.09;100.00
36748;BME280;22716;51.556;5.080;2023-04-07T02:10:11;100809.59;;;8.07;100.00
36748;BME280;22716;51.556;5.080;2023-04-07T02:12:41;100835.69;;;8.16;100.00
36748;BME280;22716;51.556;5.080;2023-04-07T02:15:17;100820.91;;;8.07;100.00
36748;BME280;22716;51.556;5.080;2023-04-07T02:17:50;100832.22;;;8.09;100.00
36748;BME280;22716;51.556;5.080;2023-04-07T02:20:21;100838.31;;;8.07;100.00
36748;BME280;22716;51.556;5.080;2023-04-07T02:22:51;100827.84;;;8.05;100.00
36748;BME280;22716;51.556;5.080;2023-04-07T02:25:22;100843.50;;;8.08;100.00
36748;BME280;22716;51.556;5.080;2023-04-07T02:27:51;100840.03;;;8.11;100.00
36748;BME280;22716;51.556;5.080;2023-04-07T02:30:24;100839.16;;;8.16;100.00
36748;BME280;22716;51.556;5.080;2023-04-07T02:32:52;100844.38;;;8.16;100.00
36748;BME280;22716;51.556;5.080;2023-04-07T02:35:22;100836.53;;;8.13;100.00
36748;BME280;22716;51.556;5.080;2023-04-07T02:37:50;100833.94;;;8.12;100.00
36748;BME280;22716;51.556;5.080;2023-04-07T02:40:23;100835.72;;;8.10;100.00
36748;BME280;22716;51.556;5.080;2023-04-07T02:42:51;100835.69;;;8.05;100.00
36748;BME280;22716;51.556;5.080;2023-04-07T02:45:23;100834.84;;;8.03;100.00
36748;BME280;22716;51.556;5.080;2023-04-07T02:47:52;100833.06;;;7.99;100.00
36748;BME280;22716;51.556;5.080;2023-04-07T02:50:20;100839.19;;;7.98;100.00
36748;BME280;22716;51.556;5.080;2023-04-07T02:52:50;100828.72;;;7.90;100.00
36748;BME280;22716;51.556;5.080;2023-04-07T02:55:19;100830.47;;;7.85;100.00
36748;BME280;22716;51.556;5.080;2023-04-07T02:57:48;100827.84;;;7.78;100.00
36748;BME280;22716;51.556;5.080;2023-04-07T03:00:17;100831.34;;;7.74;100.00
36748;BME280;22716;51.556;5.080;2023-04-07T03:02:48;100821.78;;;7.68;100.00
36748;BME280;22716;51.556;5.080;2023-04-07T03:05:17;100825.25;;;7.64;100.00
36748;BME280;22716;51.556;5.080;2023-04-07T03:07:46;100823.50;;;7.63;100.00
36748;BME280;22716;51.556;5.080;2023-04-07T03:10:15;100826.97;;;7.61;100.00
36748;BME280;22716;51.556;5.080;2023-04-07T03:12:44;100825.25;;;7.57;100.00
36748;BME280;22716;51.556;5.080;2023-04-07T03:15:12;100824.34;;;7.55;100.00
36748;BME280;22716;51.556;5.080;2023-04-07T03:17:41;100811.31;;;7.47;100.00
36748;BME280;22716;51.556;5.080;2023-04-07T03:20:13;100819.13;;;7.52;100.00
36748;BME280;22716;51.556;5.080;2023-04-07T03:22:42;100828.69;;;7.53;100.00
36748;BME280;22716;51.556;5.080;2023-04-07T03:25:12;100800.84;;;7.35;100.00
36748;BME280;22716;51.556;5.080;2023-04-07T03:27:41;100803.47;;;7.33;100.00
36748;BME280;22716;51.556;5.080;2023-04-07T03:30:11;100816.50;;;7.41;100.00
36748;BME280;22716;51.556;5.080;2023-04-07T03:32:40;100829.56;;;7.44;100.00
36748;BME280;22716;51.556;5.080;2023-04-07T03:35:10;100827.81;;;7.42;100.00
36748;BME280;22716;51.556;5.080;2023-04-07T03:37:41;100824.34;;;7.40;100.00
36748;BME280;22716;51.556;5.080;2023-04-07T03:40:11;100826.97;;;7.43;100.00
36748;BME280;22716;51.556;5.080;2023-04-07T03:42:40;100826.06;;;7.39;100.00
36748;BME280;22716;51.556;5.080;2023-04-07T03:45:09;100827.81;;;7.39;100.00
36748;BME280;22716;51.556;5.080;2023-04-07T03:47:38;100821.72;;;7.38;100.00
36748;BME280;22716;51.556;5.080;2023-04-07T03:50:08;100823.47;;;7.36;100.00
36748;BME280;22716;51.556;5.080;2023-04-07T03:52:36;100823.44;;;7.34;100.00
36748;BME280;22716;51.556;5.080;2023-04-07T03:55:08;100820.84;;;7.33;100.00
36748;BME280;22716;51.556;5.080;2023-04-07T03:57:37;100825.19;;;7.36;100.00
36748;BME280;22716;51.556;5.080;2023-04-07T04:00:08;100821.72;;;7.35;100.00
36748;BME280;22716;51.556;5.080;2023-04-07T04:02:37;100821.72;;;7.30;100.00
36748;BME280;22716;51.556;5.080;2023-04-07T04:05:06;100826.91;;;7.32;100.00
36748;BME280;22716;51.556;5.080;2023-04-07T04:07:35;100820.81;;;7.31;100.00
36748;BME280;22716;51.556;5.080;2023-04-07T04:10:08;100826.06;;;7.30;100.00
36748;BME280;22716;51.556;5.080;2023-04-07T04:12:36;100805.16;;;7.18;100.00
36748;BME280;22716;51.556;5.080;2023-04-07T04:15:08;100816.50;;;7.27;100.00
36748;BME280;22716;51.556;5.080;2023-04-07T04:17:37;100837.38;;;7.33;100.00
36748;BME280;22716;51.556;5.080;2023-04-07T04:20:07;100839.97;;;7.33;100.00
36748;BME280;22716;51.556;5.080;2023-04-07T04:22:36;100832.97;;;7.28;100.00
36748;BME280;22716;51.556;5.080;2023-04-07T04:25:08;100831.25;;;7.28;100.00
36748;BME280;22716;51.556;5.080;2023-04-07T04:27:37;100836.47;;;7.28;100.00
36748;BME280;22716;51.556;5.080;2023-04-07T04:30:07;100840.81;;;7.22;100.00
36748;BME280;22716;51.556;5.080;2023-04-07T04:32:36;100842.53;;;7.23;100.00
36748;BME280;22716;51.556;5.080;2023-04-07T04:35:06;100843.38;;;7.20;100.00
36748;BME280;22716;51.556;5.080;2023-04-07T04:37:35;100829.47;;;7.12;100.00
36748;BME280;22716;51.556;5.080;2023-04-07T04:40:08;100843.41;;;7.23;100.00
36748;BME280;22716;51.556;5.080;2023-04-07T04:42:37;100846.84;;;7.22;100.00
36748;BME280;22716;51.556;5.080;2023-04-07T04:45:08;100842.53;;;7.21;100.00
36748;BME280;22716;51.556;5.080;2023-04-07T04:47:36;100846.84;;;7.22;100.00
36748;BME280;22716;51.556;5.080;2023-04-07T04:50:09;100852.09;;;7.25;100.00
36748;BME280;22716;51.556;5.080;2023-04-07T04:52:38;100862.53;;;7.27;100.00
36748;BME280;22716;51.556;5.080;2023-04-07T04:55:10;100853.81;;;7.20;100.00
36748;BME280;22716;51.556;5.080;2023-04-07T04:57:39;100862.50;;;7.25;100.00
36748;BME280;22716;51.556;5.080;2023-04-07T05:00:09;100868.63;;;7.27;100.00
36748;BME280;22716;51.556;5.080;2023-04-07T05:02:38;100861.66;;;7.22;100.00
36748;BME280;22716;51.556;5.080;2023-04-07T05:05:08;100867.72;;;7.24;100.00
36748;BME280;22716;51.556;5.080;2023-04-07T05:07:37;100858.16;;;7.18;100.00
36748;BME280;22716;51.556;5.080;2023-04-07T05:10:11;100870.31;;;7.25;100.00
36748;BME280;22716;51.556;5.080;2023-04-07T05:12:40;100872.06;;;7.28;100.00
36748;BME280;22716;51.556;5.080;2023-04-07T05:15:10;100872.06;;;7.26;100.00
36748;BME280;22716;51.556;5.080;2023-04-07T05:17:39;100871.25;;;7.30;100.00
36748;BME280;22716;51.556;5.080;2023-04-07T05:20:10;100880.78;;;7.33;100.00
36748;BME280;22716;51.556;5.080;2023-04-07T05:22:39;100864.25;;;7.22;100.00
36748;BME280;22716;51.556;5.080;2023-04-07T05:25:10;100873.81;;;7.29;100.00
36748;BME280;22716;51.556;5.080;2023-04-07T05:27:39;100879.06;;;7.35;100.00
36748;BME280;22716;51.556;5.080;2023-04-07T05:30:09;100889.50;;;7.37;100.00
36748;BME280;22716;51.556;5.080;2023-04-07T05:32:38;100881.69;;;7.37;100.00
36748;BME280;22716;51.556;5.080;2023-04-07T05:35:09;100859.91;;;7.25;100.00
36748;BME280;22716;51.556;5.080;2023-04-07T05:37:37;100882.56;;;7.42;100.00
36748;BME280;22716;51.556;5.080;2023-04-07T05:40:10;100891.25;;;7.44;100.00
36748;BME280;22716;51.556;5.080;2023-04-07T05:42:40;100881.72;;;7.43;100.00
36748;BME280;22716;51.556;5.080;2023-04-07T05:45:10;100881.69;;;7.46;100.00
36748;BME280;22716;51.556;5.080;2023-04-07T05:47:38;100899.97;;;7.50;100.00
36748;BME280;22716;51.556;5.080;2023-04-07T05:50:08;100893.03;;;7.54;100.00
36748;BME280;22716;51.556;5.080;2023-04-07T05:52:38;100892.16;;;7.58;100.00
36748;BME280;22716;51.556;5.080;2023-04-07T05:55:10;100895.66;;;7.60;100.00
36748;BME280;22716;51.556;5.080;2023-04-07T05:57:39;100906.09;;;7.63;100.00
36748;BME280;22716;51.556;5.080;2023-04-07T06:00:09;100897.38;;;7.64;100.00
36748;BME280;22716;51.556;5.080;2023-04-07T06:02:38;100900.88;;;7.69;100.00
36748;BME280;22716;51.556;5.080;2023-04-07T06:05:08;100902.59;;;7.70;100.00
36748;BME280;22716;51.556;5.080;2023-04-07T06:07:36;100888.69;;;7.62;100.00
36748;BME280;22716;51.556;5.080;2023-04-07T06:10:07;100902.63;;;7.76;100.00
36748;BME280;22716;51.556;5.080;2023-04-07T06:12:38;100905.25;;;7.77;100.00
36748;BME280;22716;51.556;5.080;2023-04-07T06:15:08;100915.66;;;7.79;100.00
36748;BME280;22716;51.556;5.080;2023-04-07T06:17:37;100885.22;;;7.70;100.00
36748;BME280;22716;51.556;5.080;2023-04-07T06:20:07;100913.06;;;7.85;100.00
36748;BME280;22716;51.556;5.080;2023-04-07T06:22:37;100919.19;;;7.95;100.00
36748;BME280;22716;51.556;5.080;2023-04-07T06:25:08;100912.22;;;7.89;100.00
36748;BME280;22716;51.556;5.080;2023-04-07T06:27:39;100916.56;;;7.90;100.00
36748;BME280;22716;51.556;5.080;2023-04-07T06:30:10;100925.28;;;7.97;100.00
36748;BME280;22716;51.556;5.080;2023-04-07T06:32:38;100925.28;;;8.01;100.00
36748;BME280;22716;51.556;5.080;2023-04-07T06:35:08;100923.53;;;8.00;100.00
36748;BME280;22716;51.556;5.080;2023-04-07T06:37:37;100920.06;;;8.01;100.00
36748;BME280;22716;51.556;5.080;2023-04-07T06:40:08;100923.53;;;8.02;100.00
36748;BME280;22716;51.556;5.080;2023-04-07T06:42:39;100923.56;;;8.06;100.00
36748;BME280;22716;51.556;5.080;2023-04-07T06:45:09;100930.50;;;8.13;100.00
36748;BME280;22716;51.556;5.080;2023-04-07T06:47:38;100930.50;;;8.12;100.00
36748;BME280;22716;51.556;5.080;2023-04-07T06:50:08;100940.09;;;8.17;100.00
36748;BME280;22716;51.556;5.080;2023-04-07T06:52:36;100935.72;;;8.19;100.00
36748;BME280;22716;51.556;5.080;2023-04-07T06:55:07;100938.34;;;8.22;100.00
36748;BME280;22716;51.556;5.080;2023-04-07T06:57:38;100933.16;;;8.30;100.00
36748;BME280;22716;51.556;5.080;2023-04-07T07:00:09;100943.59;;;8.37;100.00
36748;BME280;22716;51.556;5.080;2023-04-07T07:02:37;100928.81;;;8.32;100.00
36748;BME280;22716;51.556;5.080;2023-04-07T07:05:07;100938.41;;;8.36;100.00
36748;BME280;22716;51.556;5.080;2023-04-07T07:07:36;100947.97;;;8.38;100.00
36748;BME280;22716;51.556;5.080;2023-04-07T07:10:07;100950.56;;;8.32;100.00
36748;BME280;22716;51.556;5.080;2023-04-07T07:12:38;100940.97;;;8.28;100.00
36748;BME280;22716;51.556;5.080;2023-04-07T07:15:08;100956.66;;;8.37;100.00
36748;BME280;22716;51.556;5.080;2023-04-07T07:17:37;100963.63;;;8.41;100.00
36748;BME280;22716;51.556;5.080;2023-04-07T07:20:08;100941.88;;;8.33;100.00
36748;BME280;22716;51.556;5.080;2023-04-07T07:22:37;100970.59;;;8.50;100.00
36748;BME280;22716;51.556;5.080;2023-04-07T07:25:07;100962.75;;;8.49;100.00
36748;BME280;22716;51.556;5.080;2023-04-07T07:27:36;100960.13;;;8.52;100.00
36748;BME280;22716;51.556;5.080;2023-04-07T07:30:08;100970.56;;;8.58;100.00
36748;BME280;22716;51.556;5.080;2023-04-07T07:32:37;100976.69;;;8.60;100.00
36748;BME280;22716;51.556;5.080;2023-04-07T07:35:07;100978.44;;;8.59;100.00
36748;BME280;22716;51.556;5.080;2023-04-07T07:37:36;100977.56;;;8.59;100.00
36748;BME280;22716;51.556;5.080;2023-04-07T07:40:06;100983.63;;;8.58;100.00
36748;BME280;22716;51.556;5.080;2023-04-07T07:42:35;100994.09;;;8.59;100.00
36748;BME280;22716;51.556;5.080;2023-04-07T07:45:07;100986.25;;;8.64;100.00
36748;BME280;22716;51.556;5.080;2023-04-07T07:47:37;100983.63;;;8.58;100.00
36748;BME280;22716;51.556;5.080;2023-04-07T07:50:06;100989.75;;;8.57;100.00
36748;BME280;22716;51.556;5.080;2023-04-07T07:52:35;100996.69;;;8.52;100.00
36748;BME280;22716;51.556;5.080;2023-04-07T07:55:05;101001.06;;;8.56;100.00
36748;BME280;22716;51.556;5.080;2023-04-07T07:57:34;100998.44;;;8.60;100.00
36748;BME280;22716;51.556;5.080;2023-04-07T08:00:09;101003.66;;;8.65;100.00
36748;BME280;22716;51.556;5.080;2023-04-07T08:02:38;101004.56;;;8.65;100.00
36748;BME280;22716;51.556;5.080;2023-04-07T08:05:07;101013.25;;;8.63;100.00
36748;BME280;22716;51.556;5.080;2023-04-07T08:07:37;101021.94;;;8.57;100.00
36748;BME280;22716;51.556;5.080;2023-04-07T08:10:08;101014.97;;;8.55;100.00
36748;BME280;22716;51.556;5.080;2023-04-07T08:12:37;101014.13;;;8.59;100.00
36748;BME280;22716;51.556;5.080;2023-04-07T08:15:09;101022.81;;;8.64;100.00
36748;BME280;22716;51.556;5.080;2023-04-07T08:17:38;101035.88;;;8.70;100.00
36748;BME280;22716;51.556;5.080;2023-04-07T08:20:08;101036.78;;;8.72;100.00
36748;BME280;22716;51.556;5.080;2023-04-07T08:22:37;101035.00;;;8.72;100.00
36748;BME280;22716;51.556;5.080;2023-04-07T08:25:07;101014.97;;;8.70;100.00
36748;BME280;22716;51.556;5.080;2023-04-07T08:27:36;101020.22;;;8.79;100.00
36748;BME280;22716;51.556;5.080;2023-04-07T08:30:09;101028.91;;;8.90;100.00
36748;BME280;22716;51.556;5.080;2023-04-07T08:32:39;101040.22;;;8.96;100.00
36748;BME280;22716;51.556;5.080;2023-04-07T08:35:09;101041.97;;;9.04;100.00
36748;BME280;22716;51.556;5.080;2023-04-07T08:37:38;101039.34;;;9.10;100.00
36748;BME280;22716;51.556;5.080;2023-04-07T08:40:10;101030.66;;;9.06;100.00
36748;BME280;22716;51.556;5.080;2023-04-07T08:42:41;101041.94;;;9.20;100.00
36748;BME280;22716;51.556;5.080;2023-04-07T08:45:13;101036.72;;;9.20;100.00
36748;BME280;22716;51.556;5.080;2023-04-07T08:47:45;101043.69;;;9.21;100.00
36748;BME280;22716;51.556;5.080;2023-04-07T08:50:16;101048.03;;;9.28;100.00
36748;BME280;22716;51.556;5.080;2023-04-07T08:52:49;101018.44;;;9.13;100.00
36748;BME280;22716;51.556;5.080;2023-04-07T08:55:18;101048.00;;;9.34;100.00
36748;BME280;22716;51.556;5.080;2023-04-07T08:57:47;101053.22;;;9.40;100.00
36748;BME280;22716;51.556;5.080;2023-04-07T09:00:19;101047.13;;;9.41;100.00
36748;BME280;22716;51.556;5.080;2023-04-07T09:02:49;101044.50;;;9.43;100.00
36748;BME280;22716;51.556;5.080;2023-04-07T09:05:18;101048.88;;;9.41;100.00
36748;BME280;22716;51.556;5.080;2023-04-07T09:07:50;101054.97;;;9.37;100.00
36748;BME280;22716;51.556;5.080;2023-04-07T09:10:19;101059.38;;;9.36;100.00
36748;BME280;22716;51.556;5.080;2023-04-07T09:12:48;101060.22;;;9.41;100.00
36748;BME280;22716;51.556;5.080;2023-04-07T09:15:20;101059.28;;;9.51;100.00
36748;BME280;22716;51.556;5.080;2023-04-07T09:17:50;101063.63;;;9.57;100.00
36748;BME280;22716;51.556;5.080;2023-04-07T09:20:19;101060.16;;;9.52;100.00
36748;BME280;22716;51.556;5.080;2023-04-07T09:22:48;101059.31;;;9.48;100.00
36748;BME280;22716;51.556;5.080;2023-04-07T09:25:20;101075.88;;;9.53;100.00
36748;BME280;22716;51.556;5.080;2023-04-07T09:27:59;101072.41;;;9.50;100.00
36748;BME280;22716;51.556;5.080;2023-04-07T09:30:32;101072.38;;;9.42;100.00
36748;BME280;22716;51.556;5.080;2023-04-07T09:33:01;101071.56;;;9.39;100.00
36748;BME280;22716;51.556;5.080;2023-04-07T09:35:30;101073.31;;;9.35;100.00
36748;BME280;22716;51.556;5.080;2023-04-07T09:38:03;101074.16;;;9.40;100.00
36748;BME280;22716;51.556;5.080;2023-04-07T09:40:33;101072.38;;;9.42;100.00
36748;BME280;22716;51.556;5.080;2023-04-07T09:43:04;101069.78;;;9.42;100.00
36748;BME280;22716;51.556;5.080;2023-04-07T09:45:36;101057.59;;;9.44;100.00
36748;BME280;22716;51.556;5.080;2023-04-07T09:48:05;101061.91;;;9.59;100.00
36748;BME280;22716;51.556;5.080;2023-04-07T09:50:38;101081.06;;;9.70;100.00
36748;BME280;22716;51.556;5.080;2023-04-07T09:53:10;101072.34;;;9.67;100.00
36748;BME280;22716;51.556;5.080;2023-04-07T09:55:39;101089.75;;;9.72;100.00
36748;BME280;22716;51.556;5.080;2023-04-07T09:58:11;101086.31;;;9.69;100.00
36748;BME280;22716;51.556;5.080;2023-04-07T10:00:44;101081.03;;;9.75;100.00
36748;BME280;22716;51.556;5.080;2023-04-07T10:03:14;101078.41;;;9.75;100.00
36748;BME280;22716;51.556;5.080;2023-04-07T10:05:43;101086.25;;;9.78;100.00
36748;BME280;22716;51.556;5.080;2023-04-07T10:08:13;101077.56;;;9.74;100.00
36748;BME280;22716;51.556;5.080;2023-04-07T10:10:42;101084.53;;;9.69;100.00
36748;BME280;22716;51.556;5.080;2023-04-07T10:13:12;101090.63;;;9.73;100.00
36748;BME280;22716;51.556;5.080;2023-04-07T10:15:44;101093.25;;;9.70;100.00
36748;BME280;22716;51.556;5.080;2023-04-07T10:18:14;101097.63;;;9.63;100.00
36748;BME280;22716;51.556;5.080;2023-04-07T10:20:44;101097.63;;;9.65;100.00
36748;BME280;22716;51.556;5.080;2023-04-07T10:23:20;101094.16;;;9.66;100.00
36748;BME280;22716;51.556;5.080;2023-04-07T10:25:50;101088.88;;;9.72;100.00
36748;BME280;22716;51.556;5.080;2023-04-07T10:28:24;101090.63;;;9.79;100.00
36748;BME280;22716;51.556;5.080;2023-04-07T10:30:57;101088.84;;;9.87;100.00
36748;BME280;22716;51.556;5.080;2023-04-07T10:33:44;101097.56;;;9.90;100.00
36748;BME280;22716;51.556;5.080;2023-04-07T10:36:20;101096.69;;;9.87;100.00
36748;BME280;22716;51.556;5.080;2023-04-07T10:39:19;101104.53;;;9.87;100.00
36748;BME280;22716;51.556;5.080;2023-04-07T10:41:49;101111.53;;;9.88;100.00
36748;BME280;22716;51.556;5.080;2023-04-07T10:44:44;101107.16;;;9.84;100.00
36748;BME280;22716;51.556;5.080;2023-04-07T10:47:17;101116.81;;;9.70;100.00
36748;BME280;22716;51.556;5.080;2023-04-07T10:50:14;101105.50;;;9.62;100.00
36748;BME280;22716;51.556;5.080;2023-04-07T10:52:44;101107.25;;;9.69;100.00
36748;BME280;22716;51.556;5.080;2023-04-07T10:55:31;101115.94;;;9.74;100.00
36748;BME280;22716;51.556;5.080;2023-04-07T10:58:20;101105.47;;;9.68;100.00
36748;BME280;22716;51.556;5.080;2023-04-07T11:04:00;101117.69;;;9.73;100.00
36748;BME280;22716;51.556;5.080;2023-04-07T11:06:29;101113.31;;;9.71;100.00
36748;BME280;22716;51.556;5.080;2023-04-07T11:08:59;101122.91;;;9.73;100.00
36748;BME280;22716;51.556;5.080;2023-04-07T11:11:37;101115.03;;;9.72;100.00
36748;BME280;22716;51.556;5.080;2023-04-07T11:14:07;101124.66;;;9.76;100.00
36748;BME280;22716;51.556;5.080;2023-04-07T11:16:39;101123.78;;;9.74;100.00
36748;BME280;22716;51.556;5.080;2023-04-07T11:19:11;101106.38;;;9.62;100.00
36748;BME280;22716;51.556;5.080;2023-04-07T11:21:40;101127.28;;;9.68;100.00
36748;BME280;22716;51.556;5.080;2023-04-07T11:24:09;101129.03;;;9.57;100.00
36748;BME280;22716;51.556;5.080;2023-04-07T11:26:40;101118.59;;;9.46;100.00
36748;BME280;22716;51.556;5.080;2023-04-07T11:29:09;101126.47;;;9.48;100.00
36748;BME280;22716;51.556;5.080;2023-04-07T11:31:39;101119.47;;;9.48;100.00
36748;BME280;22716;51.556;5.080;2023-04-07T11:34:11;101131.66;;;9.55;100.00
36748;BME280;22716;51.556;5.080;2023-04-07T11:36:40;101103.78;;;9.42;100.00
36748;BME280;22716;51.556;5.080;2023-04-07T11:39:19;101125.56;;;9.63;100.00
36748;BME280;22716;51.556;5.080;2023-04-07T11:41:52;101114.19;;;9.67;100.00
36748;BME280;22716;51.556;5.080;2023-04-07T11:44:22;101126.38;;;9.83;100.00
36748;BME280;22716;51.556;5.080;2023-04-07T11:46:52;101135.06;;;9.92;100.00
36748;BME280;22716;51.556;5.080;2023-04-07T11:49:26;101134.19;;;9.90;100.00
36748;BME280;22716;51.556;5.080;2023-04-07T11:51:57;101135.94;;;9.97;100.00
36748;BME280;22716;51.556;5.080;2023-04-07T11:54:39;101135.88;;;10.08;100.00
36748;BME280;22716;51.556;5.080;2023-04-07T11:57:08;101135.88;;;10.09;100.00
36748;BME280;22716;51.556;5.080;2023-04-07T11:59:39;101138.53;;;10.06;100.00
36748;BME280;22716;51.556;5.080;2023-04-07T12:02:08;101146.38;;;9.99;100.00
36748;BME280;22716;51.556;5.080;2023-04-07T12:04:59;101132.44;;;10.00;100.00
36748;BME280;22716;51.556;5.080;2023-04-07T12:07:28;101139.41;;;9.99;100.00
36748;BME280;22716;51.556;5.080;2023-04-07T12:09:57;101114.16;;;9.79;100.00
36748;BME280;22716;51.556;5.080;2023-04-07T12:12:28;101148.13;;;10.01;100.00
36748;BME280;22716;51.556;5.080;2023-04-07T12:14:58;101155.97;;;10.01;100.00
36748;BME280;22716;51.556;5.080;2023-04-07T12:17:28;101161.19;;;10.07;100.00
36748;BME280;22716;51.556;5.080;2023-04-07T12:19:59;101175.16;;;10.17;100.00
36748;BME280;22716;51.556;5.080;2023-04-07T12:22:29;101162.94;;;10.08;100.00
36748;BME280;22716;51.556;5.080;2023-04-07T12:24:58;101162.09;;;10.16;100.00
36748;BME280;22716;51.556;5.080;2023-04-07T12:27:27;101156.84;;;10.14;100.00
36748;BME280;22716;51.556;5.080;2023-04-07T12:29:56;101167.28;;;10.26;100.00
36748;BME280;22716;51.556;5.080;2023-04-07T12:32:25;101166.38;;;10.33;100.00
36748;BME280;22716;51.556;5.080;2023-04-07T12:34:54;101162.88;;;10.28;100.00
36748;BME280;22716;51.556;5.080;2023-04-07T12:37:26;101154.19;;;10.11;100.00
36748;BME280;22716;51.556;5.080;2023-04-07T12:39:56;101176.91;;;10.17;100.00
36748;BME280;22716;51.556;5.080;2023-04-07T12:42:26;101162.94;;;10.15;100.00
36748;BME280;22716;51.556;5.080;2023-04-07T12:44:56;101186.47;;;10.22;100.00
36748;BME280;22716;51.556;5.080;2023-04-07T12:47:25;101182.16;;;10.18;100.00
36748;BME280;22716;51.556;5.080;2023-04-07T12:49:53;101179.50;;;10.24;100.00
36748;BME280;22716;51.556;5.080;2023-04-07T12:52:26;101167.28;;;10.11;100.00
36748;BME280;22716;51.556;5.080;2023-04-07T12:54:55;101181.25;;;10.13;100.00
36748;BME280;22716;51.556;5.080;2023-04-07T12:57:24;101183.88;;;10.11;100.00
36748;BME280;22716;51.556;5.080;2023-04-07T12:59:53;101179.50;;;10.10;100.00
36748;BME280;22716;51.556;5.080;2023-04-07T13:02:22;101183.00;;;10.11;100.00
36748;BME280;22716;51.556;5.080;2023-04-07T13:04:51;101171.69;;;10.06;100.00
36748;BME280;22716;51.556;5.080;2023-04-07T13:07:20;101191.72;;;10.04;100.00
36748;BME280;22716;51.556;5.080;2023-04-07T13:09:51;101179.56;;;9.91;100.00
36748;BME280;22716;51.556;5.080;2023-04-07T13:12:22;101182.22;;;9.83;100.00